Time;durP1;ratioP1;P1;durP2;ratioP2;P2;SDS_P1;SDS_P2;PMS_P1;PMS_P2;Temp;Humidity;BMP_temperature;BMP_pressure;BME280_temperature;BME280_humidity;BME280_pressure;Samples;Min_cycle;Max_cycle;Signal;HPM_P1;HPM_P2
2021/12/31 00:02:09;;;;;;;12.13;2.95;;;;;;;10.21;100.00;101284.09;10306937;28;20022;-90
2021/12/31 00:07:10;;;;;;;20.83;4.45;;;;;;;11.38;100.00;101571.41;10322123;28;20455;-88
2021/12/31 00:12:10;;;;;;;13.75;3.65;;;;;;;7.77;100.00;100852.44;10305272;28;20060;-88
2021/12/31 00:17:11;;;;;;;14.07;3.28;;;;;;;6.13;100.00;100641.00;10328612;28;20026;-88
2021/12/31 00:27:32;;;;;;;8.45;2.30;;;;;;;5.29;100.00;100564.22;10329945;28;20123;-88
2021/12/31 00:32:33;;;;;;;16.70;3.97;;;;;;;5.40;100.00;100536.19;10328575;28;20544;-87
2021/12/31 00:37:36;;;;;;;13.98;2.80;;;;;;;5.79;100.00;100516.78;10329090;28;20046;-88
2021/12/31 00:42:37;;;;;;;15.45;2.67;;;;;;;7.18;100.00;100838.63;10328707;28;20075;-88
2021/12/31 00:47:37;;;;;;;15.68;3.13;;;;;;;7.10;100.00;100786.94;10328397;28;20052;-88
2021/12/31 00:52:38;;;;;;;14.02;3.20;;;;;;;7.15;100.00;100779.69;10343889;28;20115;-87
2021/12/31 00:57:39;;;;;;;12.10;3.00;;;;;;;6.95;100.00;100878.53;10328146;28;20529;-87
2021/12/31 01:02:40;;;;;;;14.45;2.40;;;;;;;8.27;100.00;101071.44;10342386;28;20100;-87
2021/12/31 01:07:41;;;;;;;11.50;2.70;;;;;;;7.53;100.00;100857.06;10359771;28;20026;-87
2021/12/31 01:12:41;;;;;;;21.75;3.70;;;;;;;6.89;100.00;100777.34;10343728;28;20030;-88
2021/12/31 01:23:13;;;;;;;16.00;2.90;;;;;;;5.53;100.00;100546.09;10344325;28;20402;-89
2021/12/31 01:28:14;;;;;;;13.25;3.47;;;;;;;6.77;100.00;100810.13;10343439;28;20018;-88
2021/12/31 01:33:15;;;;;;;15.13;3.13;;;;;;;9.48;100.00;101142.47;10342850;28;20449;-87
2021/12/31 01:38:16;;;;;;;10.65;3.00;;;;;;;7.29;100.00;100906.28;10341569;28;20057;-87
2021/12/31 01:43:17;;;;;;;14.38;2.95;;;;;;;9.33;100.00;101247.38;10327217;28;20033;-88
2021/12/31 01:48:22;;;;;;;14.38;3.38;;;;;;;7.12;100.00;100801.22;10327080;28;20022;-88
2021/12/31 01:53:23;;;;;;;17.80;4.70;;;;;;;7.42;100.00;100938.13;10327091;28;20108;-88
2021/12/31 01:58:24;;;;;;;14.95;3.70;;;;;;;7.44;100.00;100848.34;10342081;28;20045;-88
2021/12/31 02:03:25;;;;;;;20.95;3.42;;;;;;;8.59;100.00;101036.34;10341437;28;20050;-88
2021/12/31 02:08:25;;;;;;;11.80;3.78;;;;;;;7.16;100.00;100871.72;10341137;28;20022;-88
2021/12/31 02:13:26;;;;;;;13.20;3.55;;;;;;;7.26;100.00;100893.06;10324792;28;20022;-89
2021/12/31 02:18:30;;;;;;;16.63;4.53;;;;;;;10.77;100.00;101286.31;10341949;28;20070;-90
2021/12/31 02:23:39;;;;;;;12.32;4.13;;;;;;;7.54;100.00;100984.75;10341452;28;20029;-88
2021/12/31 02:28:40;;;;;;;19.92;4.15;;;;;;;9.50;100.00;101184.31;10327155;28;20026;-88
2021/12/31 02:33:40;;;;;;;14.13;3.00;;;;;;;6.79;100.00;100748.63;10357187;28;20124;-87
2021/12/31 02:38:41;;;;;;;12.10;3.65;;;;;;;7.85;100.00;100855.72;10355750;28;20046;-87
2021/12/31 02:43:41;;;;;;;16.73;3.50;;;;;;;9.83;100.00;101328.59;10324306;28;20052;-88
2021/12/31 02:48:43;;;;;;;20.05;3.97;;;;;;;10.23;100.00;101372.72;10323883;28;20018;-87
2021/12/31 02:53:44;;;;;;;14.05;3.92;;;;;;;11.37;100.00;101356.63;10355966;28;20091;-87
2021/12/31 02:58:45;;;;;;;16.83;3.67;;;;;;;8.61;100.00;101028.69;10324003;28;20495;-87
2021/12/31 03:03:46;;;;;;;11.93;3.33;;;;;;;7.55;100.00;100820.16;10324370;28;20049;-87
2021/12/31 03:08:48;;;;;;;12.07;3.00;;;;;;;7.95;100.00;100963.94;10324145;28;20393;-87
2021/12/31 03:13:52;;;;;;;12.27;2.85;;;;;;;9.01;100.00;100962.09;10323945;28;20030;-89
2021/12/31 03:18:54;;;;;;;8.60;3.20;;;;;;;5.42;100.00;100471.28;10323522;28;20025;-88
2021/12/31 03:23:55;;;;;;;10.77;3.80;;;;;;;5.33;100.00;100439.06;10325580;28;20041;-87
2021/12/31 03:28:56;;;;;;;13.45;3.30;;;;;;;7.51;100.00;100798.94;10331038;28;20064;-87
2021/12/31 03:33:56;;;;;;;12.35;3.58;;;;;;;7.38;100.00;100684.94;10331384;28;20108;-87
2021/12/31 03:38:57;;;;;;;7.78;3.55;;;;;;;6.93;100.00;100696.47;10330875;28;20137;-87
2021/12/31 03:43:57;;;;;;;9.77;3.20;;;;;;;7.36;100.00;100838.56;10346140;28;20124;-87
2021/12/31 03:48:58;;;;;;;7.93;3.35;;;;;;;6.81;100.00;100660.84;10329833;28;20160;-87
2021/12/31 03:53:58;;;;;;;10.10;3.22;;;;;;;5.09;100.00;100328.97;10346175;28;20022;-87
2021/12/31 03:58:59;;;;;;;8.35;3.30;;;;;;;8.94;100.00;101095.09;10329609;28;20033;-90
2021/12/31 04:04:00;;;;;;;9.38;3.30;;;;;;;10.58;100.00;101249.88;10329505;28;20176;-86
2021/12/31 04:09:00;;;;;;;9.98;3.50;;;;;;;10.71;100.00;101387.31;10345047;28;20029;-87
2021/12/31 04:14:01;;;;;;;12.70;3.63;;;;;;;10.64;100.00;101292.97;10329195;28;20049;-87
2021/12/31 04:19:01;;;;;;;9.18;2.60;;;;;;;7.18;100.00;100688.88;10344976;28;20104;-87
2021/12/31 04:24:16;;;;;;;7.65;2.45;;;;;;;7.97;100.00;100745.22;10361808;28;20050;-88
2021/12/31 04:29:16;;;;;;;8.60;1.90;;;;;;;7.32;100.00;100779.00;10333524;28;20076;-88
2021/12/31 04:34:17;;;;;;;7.13;2.30;;;;;;;6.95;100.00;100587.59;10345031;28;20045;-88
2021/12/31 04:39:18;;;;;;;5.95;2.20;;;;;;;10.58;100.00;101173.63;10344920;28;20077;-87
2021/12/31 04:44:18;;;;;;;9.55;2.13;;;;;;;7.83;100.00;100797.56;10344824;28;20045;-88
2021/12/31 04:49:19;;;;;;;6.85;2.80;;;;;;;8.36;100.00;100838.75;10329119;28;20084;-88
2021/12/31 04:54:20;;;;;;;8.02;2.10;;;;;;;9.02;100.00;100969.22;10329323;28;20021;-88
2021/12/31 04:59:20;;;;;;;6.78;1.73;;;;;;;7.96;100.00;100784.66;10345084;28;20033;-89
2021/12/31 05:04:21;;;;;;;5.22;2.03;;;;;;;10.09;100.00;101236.50;10328749;28;20030;-89
2021/12/31 05:09:21;;;;;;;8.73;2.28;;;;;;;8.59;100.00;100893.63;10328374;28;20064;-87
2021/12/31 05:14:22;;;;;;;10.52;2.03;;;;;;;8.40;100.00;100783.16;10344225;28;20033;-88
2021/12/31 05:19:22;;;;;;;7.90;3.35;;;;;;;9.59;100.00;101083.06;10342432;28;20081;-87
2021/12/31 05:24:23;;;;;;;13.75;4.32;;;;;;;9.28;100.00;100936.78;10343142;28;20548;-87
2021/12/31 05:29:24;;;;;;;9.93;4.72;;;;;;;6.71;100.00;100619.53;10342508;28;20018;-87
2021/12/31 05:34:24;;;;;;;8.88;4.80;;;;;;;8.45;100.00;100797.03;10326324;28;20382;-89
2021/12/31 05:39:25;;;;;;;9.23;4.03;;;;;;;7.69;100.00;100763.22;10326381;28;20088;-87
2021/12/31 05:44:26;;;;;;;7.28;4.72;;;;;;;9.12;100.00;101001.59;10325712;28;20034;-87
2021/12/31 05:49:26;;;;;;;13.00;3.30;;;;;;;6.26;100.00;100504.13;10324979;28;20175;-90
2021/12/31 05:54:27;;;;;;;4.90;2.75;;;;;;;9.89;100.00;101034.19;10341854;28;20033;-89
2021/12/31 05:59:27;;;;;;;6.20;2.95;;;;;;;8.04;100.00;100825.41;10326015;28;20022;-91
2021/12/31 06:04:28;;;;;;;5.97;3.25;;;;;;;8.40;100.00;100867.38;10325173;28;20140;-85
2021/12/31 06:09:30;;;;;;;6.50;3.10;;;;;;;9.25;100.00;101061.75;10341039;28;20029;-86
2021/12/31 06:14:31;;;;;;;7.20;2.88;;;;;;;6.25;100.00;100408.69;10325015;28;20125;-88
2021/12/31 06:19:31;;;;;;;5.88;3.00;;;;;;;7.73;100.00;100715.09;10324242;28;20136;-92
2021/12/31 06:24:32;;;;;;;8.75;3.00;;;;;;;7.18;100.00;100652.44;10324962;28;20117;-90
2021/12/31 06:29:32;;;;;;;5.47;2.92;;;;;;;9.49;100.00;100863.84;10324644;28;20148;-88
2021/12/31 06:34:33;;;;;;;8.82;2.80;;;;;;;11.67;100.00;101218.44;10324063;28;20029;-88
2021/12/31 06:39:35;;;;;;;6.60;2.53;;;;;;;9.46;100.00;100968.75;10339703;28;20078;-86
2021/12/31 06:44:36;;;;;;;5.50;2.40;;;;;;;9.04;100.00;100824.28;10340175;28;20505;-86
2021/12/31 06:49:37;;;;;;;7.05;2.55;;;;;;;9.44;100.00;101069.84;10339283;28;20075;-85
2021/12/31 06:54:37;;;;;;;8.07;2.38;;;;;;;9.12;100.00;100973.28;10338974;28;20566;-85
2021/12/31 06:59:38;;;;;;;6.10;2.20;;;;;;;8.65;100.00;100845.19;10325406;28;20033;-89
2021/12/31 07:04:38;;;;;;;6.75;1.80;;;;;;;9.20;100.00;100901.47;10348067;28;20529;-90
2021/12/31 07:09:39;;;;;;;10.82;2.50;;;;;;;7.58;100.00;100711.97;10331870;28;20116;-89
2021/12/31 07:14:40;;;;;;;9.88;2.42;;;;;;;7.86;100.00;100731.28;10330962;28;20041;-86
2021/12/31 07:19:40;;;;;;;6.63;2.40;;;;;;;11.06;100.00;101323.00;10346221;28;20120;-85
2021/12/31 07:24:44;;;;;;;9.40;2.20;;;;;;;8.26;100.00;100779.03;10331388;28;20430;-90
2021/12/31 07:29:45;;;;;;;6.15;1.85;;;;;;;7.82;100.00;100748.44;10362612;28;20134;-88
2021/12/31 07:34:45;;;;;;;9.38;2.00;;;;;;;9.85;100.00;101030.25;10362027;28;20081;-85
2021/12/31 07:39:48;;;;;;;4.47;1.73;;;;;;;8.75;100.00;100759.47;10345776;28;20050;-85
2021/12/31 07:44:48;;;;;;;7.57;2.72;;;;;;;9.79;100.00;101050.50;10330287;28;20516;-86
2021/12/31 07:49:49;;;;;;;6.35;2.40;;;;;;;10.65;100.00;101250.59;10345902;28;20112;-88
2021/12/31 07:54:49;;;;;;;5.22;2.17;;;;;;;7.17;100.00;100672.66;10329554;28;20476;-86
2021/12/31 07:59:50;;;;;;;3.95;2.10;;;;;;;9.14;100.00;100993.13;10344772;28;20467;-86
2021/12/31 08:04:50;;;;;;;7.43;2.25;;;;;;;10.75;100.00;101217.75;10328906;28;20026;-89
2021/12/31 08:09:51;;;;;;;5.03;2.13;;;;;;;7.68;100.00;100862.94;10329081;28;20032;-89
2021/12/31 08:14:51;;;;;;;3.42;1.85;;;;;;;10.95;100.00;101200.72;10329156;28;20026;-89
2021/12/31 08:19:52;;;;;;;5.40;2.20;;;;;;;9.05;100.00;100902.84;10328317;28;20394;-85
2021/12/31 08:24:52;;;;;;;5.00;2.67;;;;;;;11.74;100.00;101445.28;10327650;28;20138;-85
2021/12/31 08:29:53;;;;;;;3.85;1.77;;;;;;;8.40;100.00;100946.94;10343910;28;20030;-85
2021/12/31 08:34:53;;;;;;;8.82;2.65;;;;;;;9.52;100.00;101065.88;10343376;28;20026;-85
2021/12/31 08:39:54;;;;;;;3.78;2.50;;;;;;;10.42;100.00;101168.94;10328555;28;20060;-90
2021/12/31 08:44:57;;;;;;;3.95;2.30;;;;;;;7.22;100.00;100691.97;10335586;28;20030;-88
2021/12/31 08:49:58;;;;;;;4.30;2.08;;;;;;;10.86;100.00;101342.72;10313601;28;20102;-87
2021/12/31 08:54:58;;;;;;;4.78;1.75;;;;;;;8.39;100.00;100855.59;10317977;28;20038;-85
2021/12/31 08:59:59;;;;;;;7.00;2.00;;;;;;;9.48;100.00;101057.28;10286364;28;20562;-85
2021/12/31 09:04:59;;;;;;;4.13;2.13;;;;;;;8.67;100.00;100950.91;10303546;28;20463;-91
2021/12/31 09:10:00;;;;;;;5.50;2.10;;;;;;;9.26;100.00;101087.28;10289075;28;20030;-91
2021/12/31 09:15:00;;;;;;;5.18;2.20;;;;;;;7.89;100.00;100834.13;10288783;28;20136;-91
2021/12/31 09:20:02;;;;;;;5.18;2.50;;;;;;;9.83;100.00;101112.16;10303976;28;20028;-90
2021/12/31 09:25:03;;;;;;;8.00;2.85;;;;;;;11.05;100.00;101299.28;10287647;28;20027;-92
2021/12/31 09:30:04;;;;;;;6.72;2.88;;;;;;;7.39;100.00;100684.72;10287904;28;20046;-92
2021/12/31 09:35:06;;;;;;;7.93;3.00;;;;;;;8.56;100.00;100934.44;10289017;28;20030;-85
2021/12/31 09:40:08;;;;;;;8.77;3.70;;;;;;;7.71;100.00;100788.50;10284714;28;20495;-85
2021/12/31 09:45:08;;;;;;;5.32;3.30;;;;;;;10.05;100.00;101284.81;10284661;28;20038;-84
2021/12/31 09:50:09;;;;;;;5.15;2.72;;;;;;;10.75;100.00;101200.38;10285427;28;20014;-89
2021/12/31 09:55:09;;;;;;;5.90;2.85;;;;;;;7.98;100.00;100936.03;10301284;28;20463;-85
2021/12/31 10:00:11;;;;;;;4.88;2.38;;;;;;;5.95;100.00;100550.84;10301799;28;20574;-90
2021/12/31 10:05:11;;;;;;;6.38;2.47;;;;;;;8.01;100.00;100845.09;10286578;28;20030;-91
2021/12/31 10:10:13;;;;;;;4.30;2.35;;;;;;;7.30;100.00;100771.03;10289204;28;20022;-90
2021/12/31 10:15:15;;;;;;;6.93;3.20;;;;;;;7.16;100.00;100704.69;10285900;28;20045;-88
2021/12/31 10:20:15;;;;;;;6.20;2.80;;;;;;;8.92;100.00;100973.69;10285495;28;20375;-90
2021/12/31 10:25:17;;;;;;;7.68;2.92;;;;;;;11.73;100.00;101416.00;10292826;28;20029;-91
2021/12/31 10:30:22;;;;;;;5.43;2.58;;;;;;;9.19;100.00;100971.22;10334812;28;20555;-85
2021/12/31 10:35:23;;;;;;;8.77;3.05;;;;;;;7.85;100.00;100920.63;10299212;28;20021;-85
2021/12/31 10:40:36;;;;;;;5.30;3.42;;;;;;;8.48;100.00;100941.97;10327682;28;20133;-86
2021/12/31 10:45:38;;;;;;;6.57;3.50;;;;;;;7.83;100.00;100901.72;10299777;28;20065;-86
2021/12/31 10:50:38;;;;;;;4.82;3.22;;;;;;;7.17;100.00;100761.13;10300435;28;20688;-85
2021/12/31 10:55:40;;;;;;;7.07;4.20;;;;;;;6.93;100.00;100831.38;10301770;28;20109;-85
2021/12/31 11:00:43;;;;;;;6.70;3.58;;;;;;;8.91;100.00;101030.50;10313871;28;20569;-85
2021/12/31 11:05:43;;;;;;;8.18;4.10;;;;;;;9.96;100.00;101220.25;10323920;28;20015;-86
2021/12/31 11:10:43;;;;;;;7.95;4.10;;;;;;;10.28;100.00;101240.75;10298550;28;20402;-86
2021/12/31 11:15:46;;;;;;;5.68;3.67;;;;;;;7.60;100.00;100896.16;10293332;28;20031;-85
2021/12/31 11:20:47;;;;;;;8.45;3.25;;;;;;;9.82;100.00;101165.50;10316712;28;20029;-92
2021/12/31 11:25:52;;;;;;;14.18;3.83;;;;;;;9.54;100.00;101207.50;10318007;28;20092;-86
2021/12/31 11:30:53;;;;;;;5.90;3.42;;;;;;;9.45;100.00;101050.38;10319818;28;20027;-92
2021/12/31 11:36:05;;;;;;;9.10;4.75;;;;;;;9.66;100.00;101100.28;10301296;28;20022;-89
2021/12/31 11:41:21;;;;;;;8.18;4.70;;;;;;;6.54;100.00;100743.28;10306106;28;20082;-88
2021/12/31 11:46:28;;;;;;;8.63;5.22;;;;;;;7.39;100.00;100862.75;10294264;28;20034;-89
2021/12/31 11:51:39;;;;;;;12.25;5.50;;;;;;;5.70;100.00;100543.56;10290449;28;20027;-88
2021/12/31 11:56:40;;;;;;;8.13;4.85;;;;;;;10.77;100.00;101292.69;10292315;28;20076;-89
2021/12/31 12:01:51;;;;;;;8.25;5.38;;;;;;;6.67;100.00;100879.88;10321366;28;20038;-90
2021/12/31 12:06:58;;;;;;;11.15;5.50;;;;;;;10.66;100.00;101301.81;10291443;28;20034;-89
2021/12/31 12:12:08;;;;;;;10.40;6.13;;;;;;;6.03;100.00;100665.28;10321366;28;20037;-89
2021/12/31 12:17:10;;;;;;;11.50;6.70;;;;;;;8.43;100.00;101026.91;10288820;28;20057;-88
2021/12/31 12:22:23;;;;;;;15.75;7.72;;;;;;;4.93;100.00;100619.59;10305192;28;20122;-92
2021/12/31 12:27:31;;;;;;;15.48;9.23;;;;;;;10.50;100.00;101485.13;10306479;28;20117;-91
2021/12/31 12:32:51;;;;;;;20.15;8.80;;;;;;;10.52;100.00;101480.19;10305587;28;20034;-92
2021/12/31 12:37:55;;;;;;;19.48;8.68;;;;;;;4.47;100.00;100507.16;10293628;28;20058;-88
2021/12/31 12:42:57;;;;;;;23.13;10.00;;;;;;;6.75;100.00;100924.44;10304445;28;20040;-88
2021/12/31 12:47:58;;;;;;;16.92;8.45;;;;;;;7.86;100.00;101086.78;10320389;28;20117;-89
2021/12/31 12:52:58;;;;;;;14.25;8.13;;;;;;;2.90;100.00;100154.13;10304266;28;20423;-89
2021/12/31 12:58:00;;;;;;;17.85;8.70;;;;;;;10.42;100.00;101369.88;10303235;28;20026;-90
2021/12/31 13:03:07;;;;;;;12.48;7.53;;;;;;;6.64;100.00;100820.19;10288280;28;20029;-89
2021/12/31 13:08:10;;;;;;;13.35;9.00;;;;;;;8.98;100.00;101291.25;10289191;28;20061;-91
2021/12/31 13:13:37;;;;;;;21.48;8.60;;;;;;;7.64;100.00;101005.03;10294763;28;20026;-92
2021/12/31 13:18:38;;;;;;;10.02;6.80;;;;;;;7.45;100.00;100938.50;10304435;28;20041;-88
2021/12/31 13:23:39;;;;;;;12.98;7.20;;;;;;;6.44;100.00;100827.78;10290746;28;20026;-88
2021/12/31 13:28:40;;;;;;;9.50;5.82;;;;;;;6.38;100.00;100708.38;10287525;28;20018;-90
2021/12/31 13:33:48;;;;;;;6.72;4.47;;;;;;;6.77;100.00;100859.38;10302817;28;20533;-90
2021/12/31 13:39:13;;;;;;;8.38;4.85;;;;;;;4.65;100.00;100469.00;10287110;28;20514;-89
2021/12/31 13:44:22;;;;;;;5.70;4.85;;;;;;;2.91;100.00;100307.22;10303492;28;20077;-92
2021/12/31 13:49:23;;;;;;;11.20;6.80;;;;;;;6.92;100.00;100843.38;10289024;28;20030;-92
2021/12/31 13:54:40;;;;;;;6.00;4.38;;;;;;;4.60;100.00;100647.97;10303559;28;20025;-90
2021/12/31 13:59:42;;;;;;;6.40;4.57;;;;;;;7.38;100.00;100998.03;10304169;28;20045;-91
2021/12/31 14:05:01;;;;;;;7.65;4.30;;;;;;;3.68;100.00;100562.97;10287793;28;20027;-92
2021/12/31 14:10:05;;;;;;;5.22;4.10;;;;;;;6.43;100.00;100857.03;10286762;28;20033;-89
2021/12/31 14:20:20;;;;;;;7.13;3.92;;;;;;;6.27;100.00;100931.44;9521627;26;20124;-92
2021/12/31 14:25:22;;;;;;;12.68;5.53;;;;;;;6.50;100.00;100996.44;10262557;28;20036;-87
2021/12/31 14:30:23;;;;;;;20.65;7.75;;;;;;;10.21;100.00;101509.72;10277982;28;20428;-92
2021/12/31 14:35:31;;;;;;;16.98;7.85;;;;;;;7.48;100.00;101105.16;10261924;28;20030;-87
2021/12/31 14:40:31;;;;;;;21.10;8.88;;;;;;;9.55;100.00;101458.44;10282077;28;20058;-92
2021/12/31 14:45:32;;;;;;;19.52;9.35;;;;;;;7.93;100.00;101218.28;10245230;28;20476;-87
2021/12/31 14:50:33;;;;;;;21.08;10.68;;;;;;;8.11;100.00;101234.72;10270770;28;20029;-93
2021/12/31 14:55:33;;;;;;;30.35;12.13;;;;;;;7.52;100.00;101050.72;10275182;28;20461;-88
2021/12/31 15:00:34;;;;;;;26.48;14.73;;;;;;;7.99;100.00;101118.66;10260097;28;20081;-88
2021/12/31 15:05:34;;;;;;;21.58;10.98;;;;;;;4.89;100.00;100618.38;10260696;28;20058;-94
2021/12/31 15:10:35;;;;;;;24.80;12.32;;;;;;;8.33;100.00;101187.59;10243670;28;20101;-93
2021/12/31 15:15:37;;;;;;;28.77;9.45;;;;;;;5.65;100.00;100781.06;10250077;28;20023;-90
2021/12/31 15:20:38;;;;;;;24.42;8.45;;;;;;;5.58;100.00;100736.56;10234058;28;20043;-88
2021/12/31 15:25:39;;;;;;;21.90;7.40;;;;;;;5.62;100.00;100751.44;10282896;28;20056;-91
2021/12/31 15:30:40;;;;;;;23.52;9.32;;;;;;;9.74;100.00;101363.03;10279224;28;20060;-92
2021/12/31 15:35:41;;;;;;;22.80;8.13;;;;;;;10.43;100.00;101539.44;10267236;28;20037;-88
2021/12/31 15:40:41;;;;;;;15.27;8.18;;;;;;;5.69;100.00;100825.16;10251465;28;20045;-89
2021/12/31 15:45:43;;;;;;;17.48;7.80;;;;;;;6.32;100.00;100903.44;10256083;28;20041;-90
2021/12/31 15:50:43;;;;;;;26.77;9.70;;;;;;;6.86;100.00;101022.19;10272896;28;20439;-90
2021/12/31 15:55:44;;;;;;;28.08;10.13;;;;;;;9.04;100.00;101302.13;10281891;28;20105;-89
2021/12/31 16:00:44;;;;;;;20.27;7.45;;;;;;;7.54;100.00;101078.72;10240859;28;20066;-89
2021/12/31 16:05:45;;;;;;;20.25;7.95;;;;;;;4.96;100.00;100684.63;10265811;28;20022;-91
2021/12/31 16:10:45;;;;;;;21.33;7.82;;;;;;;7.87;100.00;101130.41;10249498;28;20092;-88
2021/12/31 16:15:46;;;;;;;20.02;7.55;;;;;;;6.17;100.00;100921.03;10265603;28;20031;-89
2021/12/31 16:20:47;;;;;;;24.48;9.50;;;;;;;5.33;100.00;100740.16;10248489;28;20488;-89
2021/12/31 16:25:47;;;;;;;19.23;7.35;;;;;;;7.24;100.00;101100.59;10267514;28;20062;-90
2021/12/31 16:30:48;;;;;;;22.83;7.72;;;;;;;9.09;100.00;101343.50;10243047;28;20022;-89
2021/12/31 16:35:48;;;;;;;20.55;7.28;;;;;;;7.68;100.00;101178.91;10264674;28;20023;-90
2021/12/31 16:40:49;;;;;;;18.05;6.55;;;;;;;5.73;100.00;100870.91;10265089;28;20110;-89
2021/12/31 16:45:53;;;;;;;23.58;7.18;;;;;;;5.26;100.00;100898.53;10265680;28;20042;-92
2021/12/31 16:50:54;;;;;;;21.48;8.80;;;;;;;6.28;100.00;100971.38;10267783;28;20126;-90
2021/12/31 16:55:54;;;;;;;32.95;9.32;;;;;;;7.65;100.00;101274.44;10264663;28;20191;-89
2021/12/31 17:00:55;;;;;;;19.92;8.50;;;;;;;7.36;100.00;101093.28;10264643;28;20027;-90
2021/12/31 17:05:56;;;;;;;31.98;7.57;;;;;;;8.07;100.00;101318.53;10249519;28;20031;-91
2021/12/31 17:10:56;;;;;;;22.48;8.20;;;;;;;8.14;100.00;101280.88;10264335;28;20169;-90
2021/12/31 17:15:57;;;;;;;23.15;8.05;;;;;;;6.97;100.00;101097.28;10263493;28;20058;-89
2021/12/31 17:20:58;;;;;;;23.38;8.65;;;;;;;6.83;100.00;101088.34;10247924;28;20154;-89
2021/12/31 17:25:58;;;;;;;26.25;10.18;;;;;;;9.96;100.00;101551.13;10246744;28;20038;-90
2021/12/31 17:30:59;;;;;;;26.52;10.27;;;;;;;6.29;100.00;101046.06;10261669;28;20479;-94
2021/12/31 17:36:00;;;;;;;23.77;10.13;;;;;;;7.79;100.00;101355.50;10280072;28;20034;-86
2021/12/31 17:41:01;;;;;;;29.27;10.52;;;;;;;5.05;100.00;100808.81;10263170;28;20031;-90
2021/12/31 17:46:01;;;;;;;35.25;13.07;;;;;;;4.70;100.00;100767.47;10263680;28;20149;-94
2021/12/31 17:51:03;;;;;;;31.35;14.25;;;;;;;3.46;100.00;100538.78;10278883;28;20093;-91
2021/12/31 17:56:04;;;;;;;33.83;13.18;;;;;;;6.52;100.00;101120.16;10263863;28;20031;-89
2021/12/31 18:01:04;;;;;;;30.77;12.05;;;;;;;5.45;100.00;100901.38;10246423;28;20046;-91
2021/12/31 18:06:05;;;;;;;25.85;10.00;;;;;;;5.40;100.00;101003.06;10280603;28;20027;-89
2021/12/31 18:11:07;;;;;;;26.30;8.90;;;;;;;9.19;100.00;101496.75;10263323;28;20022;-90
2021/12/31 18:16:08;;;;;;;33.58;13.27;;;;;;;5.11;100.00;100845.31;10264849;28;20047;-91
2021/12/31 18:21:08;;;;;;;31.65;10.95;;;;;;;3.91;100.00;100687.75;10279345;28;20171;-88
2021/12/31 18:26:09;;;;;;;29.08;10.25;;;;;;;6.40;100.00;101182.09;10261711;28;20034;-87
2021/12/31 18:31:10;;;;;;;29.85;10.73;;;;;;;7.30;100.00;101242.09;10250212;28;20016;-92
2021/12/31 18:36:10;;;;;;;20.58;8.93;;;;;;;6.92;100.00;101284.06;10247435;28;20399;-88
2021/12/31 18:41:11;;;;;;;38.75;9.32;;;;;;;6.30;100.00;101241.88;10238803;28;20487;-87
2021/12/31 18:46:20;;;;;;;26.60;11.07;;;;;;;7.86;100.00;101441.25;10249538;28;20062;-89
2021/12/31 18:51:25;;;;;;;43.28;17.73;;;;;;;7.70;100.00;101439.03;10232085;28;20383;-88
2021/12/31 18:56:25;;;;;;;20.33;9.43;;;;;;;7.56;100.00;101344.28;10263423;28;20026;-92
2021/12/31 19:01:26;;;;;;;34.53;12.07;;;;;;;6.08;100.00;101151.97;10284761;28;20043;-88
2021/12/31 19:06:26;;;;;;;35.72;12.18;;;;;;;5.90;100.00;101222.88;10285332;28;20105;-88
2021/12/31 19:11:27;;;;;;;25.25;10.15;;;;;;;6.00;100.00;101215.91;10283671;28;20046;-90
2021/12/31 19:16:29;;;;;;;29.77;11.13;;;;;;;4.61;100.00;101088.63;10264084;28;20032;-90
2021/12/31 19:21:29;;;;;;;21.70;9.43;;;;;;;6.70;100.00;101340.16;10267801;28;20039;-92
2021/12/31 19:26:30;;;;;;;29.58;14.55;;;;;;;4.81;100.00;101107.72;10252272;28;20035;-91
2021/12/31 19:31:30;;;;;;;24.50;10.82;;;;;;;9.90;100.00;101891.25;10241372;28;20503;-88
2021/12/31 19:36:31;;;;;;;30.33;11.10;;;;;;;5.82;100.00;101223.94;10258971;28;20029;-87
2021/12/31 19:41:32;;;;;;;31.20;10.85;;;;;;;8.43;100.00;101690.91;10254177;28;20027;-87
2021/12/31 19:46:32;;;;;;;38.63;15.70;;;;;;;4.93;100.00;101029.66;10256952;28;20034;-92
2021/12/31 19:51:33;;;;;;;36.90;20.65;;;;;;;7.33;100.00;101499.09;10228205;29;20023;-90
2021/12/31 19:56:34;;;;;;;34.72;12.98;;;;;;;7.53;100.00;101489.97;10244710;29;20019;-91
2021/12/31 20:01:34;;;;;;;34.30;13.70;;;;;;;5.45;100.00;101224.41;10245572;28;20026;-92
2021/12/31 20:06:35;;;;;;;32.78;13.10;;;;;;;9.92;100.00;101956.19;10265912;28;20412;-91
2021/12/31 20:11:35;;;;;;;33.17;15.32;;;;;;;7.13;100.00;101542.16;10211946;29;20030;-90
2021/12/31 20:16:36;;;;;;;35.35;15.32;;;;;;;8.12;100.00;101660.66;10227317;29;20047;-91
2021/12/31 20:21:36;;;;;;;43.88;16.55;;;;;;;6.17;100.00;101358.44;10227609;29;20166;-93
2021/12/31 20:26:37;;;;;;;31.05;13.18;;;;;;;6.47;100.00;101385.31;10225225;29;20549;-86
2021/12/31 20:31:37;;;;;;;33.28;14.05;;;;;;;7.85;100.00;101606.81;10225767;29;20026;-90
2021/12/31 20:36:38;;;;;;;33.30;14.02;;;;;;;5.50;100.00;101119.16;10241555;29;20023;-87
2021/12/31 20:41:38;;;;;;;39.97;15.82;;;;;;;6.14;100.00;101331.53;10241885;29;20562;-90
2021/12/31 20:46:39;;;;;;;45.40;16.23;;;;;;;5.66;100.00;101329.88;10243002;29;20024;-90
2021/12/31 20:51:41;;;;;;;32.22;14.30;;;;;;;7.63;100.00;101650.09;10241753;29;20033;-88
2021/12/31 20:56:42;;;;;;;46.65;14.60;;;;;;;6.40;100.00;101400.88;10225445;29;20031;-88
2021/12/31 21:01:43;;;;;;;41.75;15.63;;;;;;;9.90;100.00;102042.53;10242272;29;20027;-89
2021/12/31 21:06:43;;;;;;;39.50;13.70;;;;;;;6.51;100.00;101545.22;10225988;29;20126;-90
2021/12/31 21:11:44;;;;;;;46.35;15.55;;;;;;;7.05;100.00;101420.88;10225057;29;20019;-89
2021/12/31 21:16:45;;;;;;;32.40;15.73;;;;;;;6.67;100.00;101399.72;10224291;28;20047;-89
2021/12/31 21:21:46;;;;;;;34.42;17.17;;;;;;;3.73;100.00;101032.34;10239902;29;20032;-89
2021/12/31 21:26:46;;;;;;;37.35;15.32;;;;;;;5.51;100.00;101291.00;10239390;29;20023;-89
2021/12/31 21:31:47;;;;;;;40.95;16.27;;;;;;;6.34;100.00;101402.56;10239415;29;20038;-89
2021/12/31 21:36:47;;;;;;;38.85;14.18;;;;;;;6.52;100.00;101463.97;10238740;29;20104;-89
2021/12/31 21:41:48;;;;;;;34.80;13.23;;;;;;;7.43;100.00;101575.34;10255129;28;20057;-88
2021/12/31 21:46:48;;;;;;;34.35;12.98;;;;;;;10.03;100.00;102051.78;10247213;28;20027;-89
2021/12/31 21:51:49;;;;;;;45.72;14.27;;;;;;;8.58;100.00;101759.22;10261710;28;20498;-92
2021/12/31 21:56:49;;;;;;;40.25;13.07;;;;;;;6.57;100.00;101445.84;10263088;28;20464;-91
2021/12/31 22:01:50;;;;;;;33.22;16.92;;;;;;;9.08;100.00;101858.22;10262232;28;20047;-90
2021/12/31 22:06:51;;;;;;;49.60;17.73;;;;;;;6.72;100.00;101496.75;10262135;28;20109;-89
2021/12/31 22:11:52;;;;;;;43.35;20.42;;;;;;;8.08;100.00;101844.00;10261181;28;20026;-89
2021/12/31 22:16:52;;;;;;;61.15;22.30;;;;;;;5.99;100.00;101378.22;10245980;28;20122;-91
2021/12/31 22:21:53;;;;;;;49.78;22.65;;;;;;;8.64;100.00;101752.88;10261946;28;20035;-91
2021/12/31 22:26:56;;;;;;;44.70;21.23;;;;;;;6.56;100.00;101460.59;10261805;28;20101;-89
2021/12/31 22:31:56;;;;;;;60.50;24.88;;;;;;;7.10;100.00;101595.44;10261708;28;20041;-89
2021/12/31 22:36:58;;;;;;;39.53;18.02;;;;;;;10.22;100.00;102191.13;10245938;28;20023;-89
2021/12/31 22:42:00;;;;;;;49.90;19.35;;;;;;;6.27;100.00;101368.94;10245621;28;20384;-91
2021/12/31 22:47:02;;;;;;;44.83;20.25;;;;;;;7.73;100.00;101685.28;10246643;28;20034;-89
2021/12/31 22:52:03;;;;;;;46.88;19.83;;;;;;;6.15;100.00;101409.75;10244836;28;20023;-90
2021/12/31 22:57:04;;;;;;;42.00;18.17;;;;;;;5.67;100.00;101229.63;10267002;28;20475;-91
2021/12/31 23:02:04;;;;;;;42.42;20.05;;;;;;;6.53;100.00;101469.25;10244779;28;20040;-90
2021/12/31 23:07:05;;;;;;;156.48;96.88;;;;;;;6.24;100.00;101435.84;10219617;28;20114;-90